sensor_id;sensor_type;location;lat;lon;timestamp;P1;durP1;ratioP1;P2;durP2;ratioP2
6292;SDS011;3179;54.350;10.102;2022-11-15T00:00:53;37.83;;;21.70;;
6292;SDS011;3179;54.350;10.102;2022-11-15T00:03:20;32.47;;;20.60;;
6292;SDS011;3179;54.350;10.102;2022-11-15T00:05:49;32.97;;;20.97;;
6292;SDS011;3179;54.350;10.102;2022-11-15T00:08:17;36.07;;;20.30;;
6292;SDS011;3179;54.350;10.102;2022-11-15T00:10:53;33.53;;;19.53;;
6292;SDS011;3179;54.350;10.102;2022-11-15T00:13:20;35.07;;;20.27;;
6292;SDS011;3179;54.350;10.102;2022-11-15T00:15:47;34.53;;;20.17;;
6292;SDS011;3179;54.350;10.102;2022-11-15T00:18:16;41.03;;;23.07;;
6292;SDS011;3179;54.350;10.102;2022-11-15T00:20:43;35.47;;;22.10;;
6292;SDS011;3179;54.350;10.102;2022-11-15T00:23:10;37.00;;;21.30;;
6292;SDS011;3179;54.350;10.102;2022-11-15T00:25:37;36.37;;;21.57;;
6292;SDS011;3179;54.350;10.102;2022-11-15T00:28:04;34.87;;;21.53;;
6292;SDS011;3179;54.350;10.102;2022-11-15T00:30:31;40.37;;;22.00;;
6292;SDS011;3179;54.350;10.102;2022-11-15T00:33:01;34.13;;;21.40;;
6292;SDS011;3179;54.350;10.102;2022-11-15T00:35:30;31.00;;;20.20;;
6292;SDS011;3179;54.350;10.102;2022-11-15T00:37:58;37.40;;;21.80;;
6292;SDS011;3179;54.350;10.102;2022-11-15T00:40:24;33.73;;;20.87;;
6292;SDS011;3179;54.350;10.102;2022-11-15T00:42:51;35.83;;;21.80;;
6292;SDS011;3179;54.350;10.102;2022-11-15T00:45:18;35.17;;;21.63;;
6292;SDS011;3179;54.350;10.102;2022-11-15T00:47:45;36.50;;;20.90;;
6292;SDS011;3179;54.350;10.102;2022-11-15T00:50:12;35.97;;;20.77;;
6292;SDS011;3179;54.350;10.102;2022-11-15T00:52:41;30.70;;;20.07;;
6292;SDS011;3179;54.350;10.102;2022-11-15T00:55:08;32.80;;;21.20;;
6292;SDS011;3179;54.350;10.102;2022-11-15T00:57:39;34.43;;;20.17;;
6292;SDS011;3179;54.350;10.102;2022-11-15T01:00:06;32.37;;;21.83;;
6292;SDS011;3179;54.350;10.102;2022-11-15T01:02:33;36.33;;;21.30;;
6292;SDS011;3179;54.350;10.102;2022-11-15T01:05:00;33.87;;;20.43;;
6292;SDS011;3179;54.350;10.102;2022-11-15T01:07:27;33.03;;;20.30;;
6292;SDS011;3179;54.350;10.102;2022-11-15T01:09:55;32.53;;;19.53;;
6292;SDS011;3179;54.350;10.102;2022-11-15T01:12:22;38.07;;;20.87;;
6292;SDS011;3179;54.350;10.102;2022-11-15T01:14:49;35.43;;;20.77;;
6292;SDS011;3179;54.350;10.102;2022-11-15T01:17:15;32.60;;;20.83;;
6292;SDS011;3179;54.350;10.102;2022-11-15T01:19:42;36.50;;;21.20;;
6292;SDS011;3179;54.350;10.102;2022-11-15T01:22:09;35.20;;;20.23;;
6292;SDS011;3179;54.350;10.102;2022-11-15T01:24:36;31.53;;;20.17;;
6292;SDS011;3179;54.350;10.102;2022-11-15T01:27:04;32.93;;;21.20;;
6292;SDS011;3179;54.350;10.102;2022-11-15T01:29:31;28.93;;;18.20;;
6292;SDS011;3179;54.350;10.102;2022-11-15T01:31:57;33.87;;;20.03;;
6292;SDS011;3179;54.350;10.102;2022-11-15T01:34:24;33.10;;;19.67;;
6292;SDS011;3179;54.350;10.102;2022-11-15T01:36:51;32.30;;;19.80;;
6292;SDS011;3179;54.350;10.102;2022-11-15T01:39:18;30.03;;;18.87;;
6292;SDS011;3179;54.350;10.102;2022-11-15T01:41:45;33.03;;;19.33;;
6292;SDS011;3179;54.350;10.102;2022-11-15T01:47:06;29.13;;;20.97;;
6292;SDS011;3179;54.350;10.102;2022-11-15T01:49:37;31.63;;;19.00;;
6292;SDS011;3179;54.350;10.102;2022-11-15T01:52:07;31.23;;;18.80;;
6292;SDS011;3179;54.350;10.102;2022-11-15T01:54:36;29.57;;;18.53;;
6292;SDS011;3179;54.350;10.102;2022-11-15T01:57:03;29.37;;;18.23;;
6292;SDS011;3179;54.350;10.102;2022-11-15T01:59:35;32.53;;;20.60;;
6292;SDS011;3179;54.350;10.102;2022-11-15T02:02:03;29.23;;;18.90;;
6292;SDS011;3179;54.350;10.102;2022-11-15T02:04:30;30.80;;;19.73;;
6292;SDS011;3179;54.350;10.102;2022-11-15T02:06:59;27.07;;;16.93;;
6292;SDS011;3179;54.350;10.102;2022-11-15T02:09:29;30.33;;;19.63;;
6292;SDS011;3179;54.350;10.102;2022-11-15T02:11:56;27.93;;;17.50;;
6292;SDS011;3179;54.350;10.102;2022-11-15T02:14:23;32.20;;;19.30;;
6292;SDS011;3179;54.350;10.102;2022-11-15T02:16:57;27.43;;;17.60;;
6292;SDS011;3179;54.350;10.102;2022-11-15T02:19:29;30.93;;;18.60;;
6292;SDS011;3179;54.350;10.102;2022-11-15T02:22:30;31.00;;;18.20;;
6292;SDS011;3179;54.350;10.102;2022-11-15T02:25:16;30.37;;;18.30;;
6292;SDS011;3179;54.350;10.102;2022-11-15T02:28:05;30.30;;;19.40;;
6292;SDS011;3179;54.350;10.102;2022-11-15T02:30:44;27.10;;;17.90;;
6292;SDS011;3179;54.350;10.102;2022-11-15T02:33:16;27.90;;;18.07;;
6292;SDS011;3179;54.350;10.102;2022-11-15T02:35:57;26.57;;;18.03;;
6292;SDS011;3179;54.350;10.102;2022-11-15T02:38:28;28.53;;;17.90;;
6292;SDS011;3179;54.350;10.102;2022-11-15T02:41:01;29.10;;;18.63;;
6292;SDS011;3179;54.350;10.102;2022-11-15T02:43:31;27.20;;;18.43;;
6292;SDS011;3179;54.350;10.102;2022-11-15T02:46:22;28.50;;;17.87;;
6292;SDS011;3179;54.350;10.102;2022-11-15T02:49:13;31.90;;;20.57;;
6292;SDS011;3179;54.350;10.102;2022-11-15T02:51:41;31.57;;;17.97;;
6292;SDS011;3179;54.350;10.102;2022-11-15T02:54:11;27.63;;;17.47;;
6292;SDS011;3179;54.350;10.102;2022-11-15T02:56:40;31.43;;;18.43;;
6292;SDS011;3179;54.350;10.102;2022-11-15T02:59:11;27.27;;;17.57;;
6292;SDS011;3179;54.350;10.102;2022-11-15T03:01:53;27.57;;;18.20;;
6292;SDS011;3179;54.350;10.102;2022-11-15T03:04:30;27.10;;;18.63;;
6292;SDS011;3179;54.350;10.102;2022-11-15T03:07:07;29.50;;;18.90;;
6292;SDS011;3179;54.350;10.102;2022-11-15T03:09:40;29.40;;;17.60;;
6292;SDS011;3179;54.350;10.102;2022-11-15T03:12:12;28.83;;;18.87;;
6292;SDS011;3179;54.350;10.102;2022-11-15T03:14:44;30.10;;;18.77;;
6292;SDS011;3179;54.350;10.102;2022-11-15T03:17:21;29.77;;;18.20;;
6292;SDS011;3179;54.350;10.102;2022-11-15T03:19:53;26.60;;;17.57;;
6292;SDS011;3179;54.350;10.102;2022-11-15T03:22:22;28.90;;;17.87;;
6292;SDS011;3179;54.350;10.102;2022-11-15T03:24:54;27.87;;;18.50;;
6292;SDS011;3179;54.350;10.102;2022-11-15T03:27:25;28.67;;;17.63;;
6292;SDS011;3179;54.350;10.102;2022-11-15T03:29:57;30.13;;;19.77;;
6292;SDS011;3179;54.350;10.102;2022-11-15T03:32:29;29.33;;;18.43;;
6292;SDS011;3179;54.350;10.102;2022-11-15T03:35:00;25.53;;;17.63;;
6292;SDS011;3179;54.350;10.102;2022-11-15T03:37:32;30.47;;;19.10;;
6292;SDS011;3179;54.350;10.102;2022-11-15T03:40:02;26.40;;;17.20;;
6292;SDS011;3179;54.350;10.102;2022-11-15T03:42:30;30.50;;;17.77;;
6292;SDS011;3179;54.350;10.102;2022-11-15T03:45:03;27.73;;;18.27;;
6292;SDS011;3179;54.350;10.102;2022-11-15T03:47:41;26.10;;;16.97;;
6292;SDS011;3179;54.350;10.102;2022-11-15T03:50:12;27.80;;;18.10;;
6292;SDS011;3179;54.350;10.102;2022-11-15T03:52:41;27.67;;;17.60;;
6292;SDS011;3179;54.350;10.102;2022-11-15T03:55:12;26.27;;;17.30;;
6292;SDS011;3179;54.350;10.102;2022-11-15T03:57:41;23.97;;;16.40;;
6292;SDS011;3179;54.350;10.102;2022-11-15T04:00:08;25.53;;;17.37;;
6292;SDS011;3179;54.350;10.102;2022-11-15T04:02:36;26.57;;;17.57;;
6292;SDS011;3179;54.350;10.102;2022-11-15T04:05:05;25.17;;;18.03;;
6292;SDS011;3179;54.350;10.102;2022-11-15T04:07:32;33.77;;;19.33;;
6292;SDS011;3179;54.350;10.102;2022-11-15T04:09:58;26.20;;;18.23;;
6292;SDS011;3179;54.350;10.102;2022-11-15T04:12:28;28.40;;;16.90;;
6292;SDS011;3179;54.350;10.102;2022-11-15T04:14:58;26.97;;;17.80;;
6292;SDS011;3179;54.350;10.102;2022-11-15T04:17:35;27.70;;;17.90;;
6292;SDS011;3179;54.350;10.102;2022-11-15T04:20:05;28.60;;;19.90;;
6292;SDS011;3179;54.350;10.102;2022-11-15T04:22:52;25.93;;;17.20;;
6292;SDS011;3179;54.350;10.102;2022-11-15T04:25:37;25.30;;;17.33;;
6292;SDS011;3179;54.350;10.102;2022-11-15T04:28:03;25.73;;;17.57;;
6292;SDS011;3179;54.350;10.102;2022-11-15T04:30:30;28.40;;;19.07;;
6292;SDS011;3179;54.350;10.102;2022-11-15T04:32:57;27.30;;;17.27;;
6292;SDS011;3179;54.350;10.102;2022-11-15T04:35:25;27.43;;;19.20;;
6292;SDS011;3179;54.350;10.102;2022-11-15T04:37:52;26.80;;;18.23;;
6292;SDS011;3179;54.350;10.102;2022-11-15T04:40:18;27.83;;;17.77;;
6292;SDS011;3179;54.350;10.102;2022-11-15T04:42:45;26.40;;;17.67;;
6292;SDS011;3179;54.350;10.102;2022-11-15T04:45:11;24.93;;;16.03;;
6292;SDS011;3179;54.350;10.102;2022-11-15T04:47:38;28.00;;;18.40;;
6292;SDS011;3179;54.350;10.102;2022-11-15T04:50:05;26.30;;;17.50;;
6292;SDS011;3179;54.350;10.102;2022-11-15T04:52:34;25.13;;;16.80;;
6292;SDS011;3179;54.350;10.102;2022-11-15T04:55:00;28.87;;;17.80;;
6292;SDS011;3179;54.350;10.102;2022-11-15T04:57:27;30.87;;;18.23;;
6292;SDS011;3179;54.350;10.102;2022-11-15T04:59:54;26.83;;;17.97;;
6292;SDS011;3179;54.350;10.102;2022-11-15T05:02:21;26.97;;;18.33;;
6292;SDS011;3179;54.350;10.102;2022-11-15T05:04:47;25.57;;;17.40;;
6292;SDS011;3179;54.350;10.102;2022-11-15T05:07:13;27.17;;;18.40;;
6292;SDS011;3179;54.350;10.102;2022-11-15T05:09:41;28.13;;;17.90;;
6292;SDS011;3179;54.350;10.102;2022-11-15T05:12:08;26.73;;;18.30;;
6292;SDS011;3179;54.350;10.102;2022-11-15T05:14:35;29.70;;;18.83;;
6292;SDS011;3179;54.350;10.102;2022-11-15T05:17:01;31.97;;;19.37;;
6292;SDS011;3179;54.350;10.102;2022-11-15T05:19:28;26.33;;;17.13;;
6292;SDS011;3179;54.350;10.102;2022-11-15T05:21:55;30.10;;;17.97;;
6292;SDS011;3179;54.350;10.102;2022-11-15T05:24:22;28.50;;;18.10;;
6292;SDS011;3179;54.350;10.102;2022-11-15T05:26:50;27.70;;;17.63;;
6292;SDS011;3179;54.350;10.102;2022-11-15T05:29:17;26.70;;;18.30;;
6292;SDS011;3179;54.350;10.102;2022-11-15T05:31:43;27.37;;;17.23;;
6292;SDS011;3179;54.350;10.102;2022-11-15T05:34:10;23.53;;;16.73;;
6292;SDS011;3179;54.350;10.102;2022-11-15T05:36:38;25.67;;;17.93;;
6292;SDS011;3179;54.350;10.102;2022-11-15T05:39:08;29.23;;;18.37;;
6292;SDS011;3179;54.350;10.102;2022-11-15T05:41:35;29.97;;;18.00;;
6292;SDS011;3179;54.350;10.102;2022-11-15T05:44:07;28.57;;;16.90;;
6292;SDS011;3179;54.350;10.102;2022-11-15T05:46:37;28.27;;;17.70;;
6292;SDS011;3179;54.350;10.102;2022-11-15T05:49:07;26.20;;;16.97;;
6292;SDS011;3179;54.350;10.102;2022-11-15T05:51:38;27.57;;;17.30;;
6292;SDS011;3179;54.350;10.102;2022-11-15T05:54:05;26.07;;;18.17;;
6292;SDS011;3179;54.350;10.102;2022-11-15T05:56:32;30.20;;;19.10;;
6292;SDS011;3179;54.350;10.102;2022-11-15T05:58:59;24.13;;;16.30;;
6292;SDS011;3179;54.350;10.102;2022-11-15T06:01:27;25.83;;;16.73;;
6292;SDS011;3179;54.350;10.102;2022-11-15T06:03:54;24.80;;;16.47;;
6292;SDS011;3179;54.350;10.102;2022-11-15T06:06:20;25.53;;;16.23;;
6292;SDS011;3179;54.350;10.102;2022-11-15T06:08:47;25.67;;;17.47;;
6292;SDS011;3179;54.350;10.102;2022-11-15T06:11:14;26.30;;;15.93;;
6292;SDS011;3179;54.350;10.102;2022-11-15T06:13:41;27.87;;;16.87;;
6292;SDS011;3179;54.350;10.102;2022-11-15T06:16:07;25.63;;;16.40;;
6292;SDS011;3179;54.350;10.102;2022-11-15T06:18:36;27.93;;;17.80;;
6292;SDS011;3179;54.350;10.102;2022-11-15T06:21:03;25.37;;;16.83;;
6292;SDS011;3179;54.350;10.102;2022-11-15T06:23:31;24.57;;;16.17;;
6292;SDS011;3179;54.350;10.102;2022-11-15T06:25:58;26.07;;;16.50;;
6292;SDS011;3179;54.350;10.102;2022-11-15T06:28:27;25.73;;;17.03;;
6292;SDS011;3179;54.350;10.102;2022-11-15T06:30:55;24.43;;;17.03;;
6292;SDS011;3179;54.350;10.102;2022-11-15T06:33:25;25.47;;;16.17;;
6292;SDS011;3179;54.350;10.102;2022-11-15T06:35:53;25.00;;;16.20;;
6292;SDS011;3179;54.350;10.102;2022-11-15T06:38:20;26.13;;;15.77;;
6292;SDS011;3179;54.350;10.102;2022-11-15T06:40:47;24.60;;;15.37;;
6292;SDS011;3179;54.350;10.102;2022-11-15T06:43:13;24.37;;;17.10;;
6292;SDS011;3179;54.350;10.102;2022-11-15T06:45:40;23.60;;;15.80;;
6292;SDS011;3179;54.350;10.102;2022-11-15T06:48:07;27.00;;;17.30;;
6292;SDS011;3179;54.350;10.102;2022-11-15T06:50:34;25.00;;;15.80;;
6292;SDS011;3179;54.350;10.102;2022-11-15T06:53:02;24.37;;;16.60;;
6292;SDS011;3179;54.350;10.102;2022-11-15T06:55:29;24.70;;;16.30;;
6292;SDS011;3179;54.350;10.102;2022-11-15T06:57:56;25.03;;;16.93;;
6292;SDS011;3179;54.350;10.102;2022-11-15T07:00:23;25.73;;;16.80;;
6292;SDS011;3179;54.350;10.102;2022-11-15T07:02:50;21.97;;;15.97;;
6292;SDS011;3179;54.350;10.102;2022-11-15T07:05:16;24.60;;;16.53;;
6292;SDS011;3179;54.350;10.102;2022-11-15T07:07:45;29.00;;;17.67;;
6292;SDS011;3179;54.350;10.102;2022-11-15T07:10:19;23.67;;;16.27;;
6292;SDS011;3179;54.350;10.102;2022-11-15T07:12:46;25.63;;;16.83;;
6292;SDS011;3179;54.350;10.102;2022-11-15T07:15:13;24.43;;;15.90;;
6292;SDS011;3179;54.350;10.102;2022-11-15T07:17:40;27.30;;;17.30;;
6292;SDS011;3179;54.350;10.102;2022-11-15T07:20:07;26.17;;;17.40;;
6292;SDS011;3179;54.350;10.102;2022-11-15T07:22:34;25.60;;;16.63;;
6292;SDS011;3179;54.350;10.102;2022-11-15T07:25:01;23.43;;;16.20;;
6292;SDS011;3179;54.350;10.102;2022-11-15T07:27:29;21.60;;;15.20;;
6292;SDS011;3179;54.350;10.102;2022-11-15T07:29:56;25.33;;;16.10;;
6292;SDS011;3179;54.350;10.102;2022-11-15T07:32:23;25.27;;;17.30;;
6292;SDS011;3179;54.350;10.102;2022-11-15T07:34:50;23.97;;;14.40;;
6292;SDS011;3179;54.350;10.102;2022-11-15T07:37:17;22.90;;;15.90;;
6292;SDS011;3179;54.350;10.102;2022-11-15T07:39:44;21.93;;;14.47;;
6292;SDS011;3179;54.350;10.102;2022-11-15T07:42:10;25.50;;;16.30;;
6292;SDS011;3179;54.350;10.102;2022-11-15T07:44:56;25.90;;;16.10;;
6292;SDS011;3179;54.350;10.102;2022-11-15T07:47:23;26.17;;;16.47;;
6292;SDS011;3179;54.350;10.102;2022-11-15T07:49:51;23.77;;;15.37;;
6292;SDS011;3179;54.350;10.102;2022-11-15T07:52:22;27.00;;;17.17;;
6292;SDS011;3179;54.350;10.102;2022-11-15T07:54:49;22.00;;;15.80;;
6292;SDS011;3179;54.350;10.102;2022-11-15T07:57:17;26.07;;;16.37;;
6292;SDS011;3179;54.350;10.102;2022-11-15T07:59:44;21.53;;;14.63;;
6292;SDS011;3179;54.350;10.102;2022-11-15T08:02:12;23.60;;;15.33;;
6292;SDS011;3179;54.350;10.102;2022-11-15T08:04:41;21.10;;;15.00;;
6292;SDS011;3179;54.350;10.102;2022-11-15T08:07:09;22.70;;;15.37;;
6292;SDS011;3179;54.350;10.102;2022-11-15T08:09:36;21.37;;;14.00;;
6292;SDS011;3179;54.350;10.102;2022-11-15T08:12:03;23.03;;;15.40;;
6292;SDS011;3179;54.350;10.102;2022-11-15T08:14:30;23.50;;;15.43;;
6292;SDS011;3179;54.350;10.102;2022-11-15T08:16:57;28.17;;;16.57;;
6292;SDS011;3179;54.350;10.102;2022-11-15T08:19:25;20.53;;;14.93;;
6292;SDS011;3179;54.350;10.102;2022-11-15T08:21:52;19.07;;;14.17;;
6292;SDS011;3179;54.350;10.102;2022-11-15T08:24:22;22.37;;;15.00;;
6292;SDS011;3179;54.350;10.102;2022-11-15T08:26:49;25.40;;;15.00;;
6292;SDS011;3179;54.350;10.102;2022-11-15T08:29:17;21.20;;;14.37;;
6292;SDS011;3179;54.350;10.102;2022-11-15T08:31:44;19.30;;;14.23;;
6292;SDS011;3179;54.350;10.102;2022-11-15T08:34:11;22.77;;;15.20;;
6292;SDS011;3179;54.350;10.102;2022-11-15T08:36:40;21.13;;;14.27;;
6292;SDS011;3179;54.350;10.102;2022-11-15T08:39:09;20.80;;;13.60;;
6292;SDS011;3179;54.350;10.102;2022-11-15T08:41:37;21.60;;;14.43;;
6292;SDS011;3179;54.350;10.102;2022-11-15T08:44:05;20.17;;;14.30;;
6292;SDS011;3179;54.350;10.102;2022-11-15T08:46:32;23.70;;;14.07;;
6292;SDS011;3179;54.350;10.102;2022-11-15T08:48:59;20.37;;;14.20;;
6292;SDS011;3179;54.350;10.102;2022-11-15T08:51:26;20.20;;;14.53;;
6292;SDS011;3179;54.350;10.102;2022-11-15T08:53:57;22.63;;;15.23;;
6292;SDS011;3179;54.350;10.102;2022-11-15T08:56:24;18.93;;;12.77;;
6292;SDS011;3179;54.350;10.102;2022-11-15T09:01:26;20.30;;;12.70;;
6292;SDS011;3179;54.350;10.102;2022-11-15T09:03:53;23.00;;;13.90;;
6292;SDS011;3179;54.350;10.102;2022-11-15T09:06:20;19.93;;;13.27;;
6292;SDS011;3179;54.350;10.102;2022-11-15T09:08:47;19.60;;;13.73;;
6292;SDS011;3179;54.350;10.102;2022-11-15T09:11:15;17.93;;;13.07;;
6292;SDS011;3179;54.350;10.102;2022-11-15T09:13:45;20.47;;;13.50;;
6292;SDS011;3179;54.350;10.102;2022-11-15T09:16:11;18.50;;;12.70;;
6292;SDS011;3179;54.350;10.102;2022-11-15T09:18:40;18.17;;;13.13;;
6292;SDS011;3179;54.350;10.102;2022-11-15T09:21:07;15.17;;;11.83;;
6292;SDS011;3179;54.350;10.102;2022-11-15T09:23:34;16.43;;;11.60;;
6292;SDS011;3179;54.350;10.102;2022-11-15T09:26:02;21.23;;;12.27;;
6292;SDS011;3179;54.350;10.102;2022-11-15T09:28:32;20.60;;;13.50;;
6292;SDS011;3179;54.350;10.102;2022-11-15T09:30:59;18.37;;;12.60;;
6292;SDS011;3179;54.350;10.102;2022-11-15T09:33:27;17.70;;;13.27;;
6292;SDS011;3179;54.350;10.102;2022-11-15T09:35:59;19.00;;;12.90;;
6292;SDS011;3179;54.350;10.102;2022-11-15T09:38:26;22.07;;;14.43;;
6292;SDS011;3179;54.350;10.102;2022-11-15T09:40:58;17.97;;;12.37;;
6292;SDS011;3179;54.350;10.102;2022-11-15T09:43:46;17.10;;;11.87;;
6292;SDS011;3179;54.350;10.102;2022-11-15T09:46:19;17.20;;;12.03;;
6292;SDS011;3179;54.350;10.102;2022-11-15T09:48:51;20.50;;;12.13;;
6292;SDS011;3179;54.350;10.102;2022-11-15T09:51:23;18.53;;;12.93;;
6292;SDS011;3179;54.350;10.102;2022-11-15T09:53:56;15.10;;;11.73;;
6292;SDS011;3179;54.350;10.102;2022-11-15T09:56:28;15.80;;;12.53;;
6292;SDS011;3179;54.350;10.102;2022-11-15T09:59:01;18.90;;;12.20;;
6292;SDS011;3179;54.350;10.102;2022-11-15T10:01:40;18.50;;;12.60;;
6292;SDS011;3179;54.350;10.102;2022-11-15T10:04:16;22.10;;;12.17;;
6292;SDS011;3179;54.350;10.102;2022-11-15T10:06:46;16.77;;;11.37;;
6292;SDS011;3179;54.350;10.102;2022-11-15T10:09:19;18.00;;;12.70;;
6292;SDS011;3179;54.350;10.102;2022-11-15T10:11:51;16.33;;;11.87;;
6292;SDS011;3179;54.350;10.102;2022-11-15T10:14:19;18.23;;;12.33;;
6292;SDS011;3179;54.350;10.102;2022-11-15T10:19:53;15.77;;;11.47;;
6292;SDS011;3179;54.350;10.102;2022-11-15T10:22:29;17.00;;;12.10;;
6292;SDS011;3179;54.350;10.102;2022-11-15T10:25:00;18.37;;;12.43;;
6292;SDS011;3179;54.350;10.102;2022-11-15T10:27:38;16.90;;;12.50;;
6292;SDS011;3179;54.350;10.102;2022-11-15T10:30:11;17.93;;;11.40;;
6292;SDS011;3179;54.350;10.102;2022-11-15T10:32:39;16.43;;;12.37;;
6292;SDS011;3179;54.350;10.102;2022-11-15T10:35:15;17.83;;;11.50;;
6292;SDS011;3179;54.350;10.102;2022-11-15T10:37:44;17.03;;;11.80;;
6292;SDS011;3179;54.350;10.102;2022-11-15T10:40:14;17.40;;;11.90;;
6292;SDS011;3179;54.350;10.102;2022-11-15T10:42:44;14.63;;;10.00;;
6292;SDS011;3179;54.350;10.102;2022-11-15T10:45:23;14.80;;;11.00;;
6292;SDS011;3179;54.350;10.102;2022-11-15T10:47:52;19.00;;;11.10;;
6292;SDS011;3179;54.350;10.102;2022-11-15T10:50:29;16.30;;;11.77;;
6292;SDS011;3179;54.350;10.102;2022-11-15T10:52:57;15.57;;;10.70;;
6292;SDS011;3179;54.350;10.102;2022-11-15T10:55:27;16.50;;;11.60;;
6292;SDS011;3179;54.350;10.102;2022-11-15T10:57:58;16.13;;;11.33;;
6292;SDS011;3179;54.350;10.102;2022-11-15T11:00:32;15.77;;;11.77;;
6292;SDS011;3179;54.350;10.102;2022-11-15T11:03:02;17.67;;;10.80;;
6292;SDS011;3179;54.350;10.102;2022-11-15T11:05:32;19.63;;;11.77;;
6292;SDS011;3179;54.350;10.102;2022-11-15T11:08:02;18.77;;;12.30;;
6292;SDS011;3179;54.350;10.102;2022-11-15T11:10:31;20.27;;;12.20;;
6292;SDS011;3179;54.350;10.102;2022-11-15T11:13:12;15.93;;;11.67;;
6292;SDS011;3179;54.350;10.102;2022-11-15T11:15:41;14.93;;;10.50;;
6292;SDS011;3179;54.350;10.102;2022-11-15T11:18:13;16.13;;;11.50;;
6292;SDS011;3179;54.350;10.102;2022-11-15T11:20:46;15.23;;;10.57;;
6292;SDS011;3179;54.350;10.102;2022-11-15T11:23:29;13.10;;;10.67;;
6292;SDS011;3179;54.350;10.102;2022-11-15T11:26:11;15.03;;;10.93;;
6292;SDS011;3179;54.350;10.102;2022-11-15T11:28:54;16.10;;;11.17;;
6292;SDS011;3179;54.350;10.102;2022-11-15T11:31:31;19.07;;;12.00;;
6292;SDS011;3179;54.350;10.102;2022-11-15T11:34:08;17.37;;;10.33;;
6292;SDS011;3179;54.350;10.102;2022-11-15T11:36:44;17.00;;;12.07;;
6292;SDS011;3179;54.350;10.102;2022-11-15T11:39:21;15.47;;;11.03;;
6292;SDS011;3179;54.350;10.102;2022-11-15T11:41:58;15.57;;;10.60;;
6292;SDS011;3179;54.350;10.102;2022-11-15T11:44:38;16.20;;;11.07;;
6292;SDS011;3179;54.350;10.102;2022-11-15T11:47:16;18.23;;;11.87;;
6292;SDS011;3179;54.350;10.102;2022-11-15T11:49:49;15.33;;;11.20;;
6292;SDS011;3179;54.350;10.102;2022-11-15T11:52:21;15.27;;;10.50;;
6292;SDS011;3179;54.350;10.102;2022-11-15T11:54:55;13.17;;;10.50;;
6292;SDS011;3179;54.350;10.102;2022-11-15T11:57:32;16.70;;;11.03;;
6292;SDS011;3179;54.350;10.102;2022-11-15T12:00:09;13.20;;;10.10;;
6292;SDS011;3179;54.350;10.102;2022-11-15T12:02:43;17.90;;;11.50;;
6292;SDS011;3179;54.350;10.102;2022-11-15T12:05:15;15.80;;;10.83;;
6292;SDS011;3179;54.350;10.102;2022-11-15T12:07:46;15.20;;;10.80;;
6292;SDS011;3179;54.350;10.102;2022-11-15T12:10:17;16.63;;;11.43;;
6292;SDS011;3179;54.350;10.102;2022-11-15T12:12:50;18.43;;;11.73;;
6292;SDS011;3179;54.350;10.102;2022-11-15T12:15:23;16.20;;;11.30;;
6292;SDS011;3179;54.350;10.102;2022-11-15T12:17:56;18.00;;;11.13;;
6292;SDS011;3179;54.350;10.102;2022-11-15T12:20:26;17.47;;;10.93;;
6292;SDS011;3179;54.350;10.102;2022-11-15T12:23:01;14.10;;;10.47;;
6292;SDS011;3179;54.350;10.102;2022-11-15T12:25:33;14.73;;;11.30;;
6292;SDS011;3179;54.350;10.102;2022-11-15T12:28:11;16.97;;;11.80;;
6292;SDS011;3179;54.350;10.102;2022-11-15T12:30:45;16.53;;;11.03;;
6292;SDS011;3179;54.350;10.102;2022-11-15T12:33:31;14.60;;;9.80;;
6292;SDS011;3179;54.350;10.102;2022-11-15T12:36:03;15.13;;;10.93;;
6292;SDS011;3179;54.350;10.102;2022-11-15T12:38:51;14.93;;;10.00;;
6292;SDS011;3179;54.350;10.102;2022-11-15T12:41:21;12.43;;;9.80;;
6292;SDS011;3179;54.350;10.102;2022-11-15T12:43:49;14.70;;;10.80;;
6292;SDS011;3179;54.350;10.102;2022-11-15T12:46:20;15.27;;;11.00;;
6292;SDS011;3179;54.350;10.102;2022-11-15T12:48:55;13.73;;;10.53;;
6292;SDS011;3179;54.350;10.102;2022-11-15T12:54:50;20.63;;;11.00;;
6292;SDS011;3179;54.350;10.102;2022-11-15T12:57:28;15.90;;;10.53;;
6292;SDS011;3179;54.350;10.102;2022-11-15T12:59:58;17.03;;;10.00;;
6292;SDS011;3179;54.350;10.102;2022-11-15T13:02:29;12.23;;;10.40;;
6292;SDS011;3179;54.350;10.102;2022-11-15T13:07:58;12.70;;;9.27;;
6292;SDS011;3179;54.350;10.102;2022-11-15T13:10:30;13.17;;;9.13;;
6292;SDS011;3179;54.350;10.102;2022-11-15T13:12:57;12.33;;;9.50;;
6292;SDS011;3179;54.350;10.102;2022-11-15T13:15:33;16.20;;;10.87;;
6292;SDS011;3179;54.350;10.102;2022-11-15T13:21:19;13.00;;;10.07;;
6292;SDS011;3179;54.350;10.102;2022-11-15T13:24:11;11.93;;;9.10;;
6292;SDS011;3179;54.350;10.102;2022-11-15T13:26:40;14.50;;;10.43;;
6292;SDS011;3179;54.350;10.102;2022-11-15T13:29:14;12.43;;;9.60;;
6292;SDS011;3179;54.350;10.102;2022-11-15T13:31:43;17.00;;;10.47;;
6292;SDS011;3179;54.350;10.102;2022-11-15T13:34:16;16.33;;;10.30;;
6292;SDS011;3179;54.350;10.102;2022-11-15T13:36:51;18.10;;;10.47;;
6292;SDS011;3179;54.350;10.102;2022-11-15T13:39:27;13.97;;;9.57;;
6292;SDS011;3179;54.350;10.102;2022-11-15T13:41:56;12.73;;;9.40;;
6292;SDS011;3179;54.350;10.102;2022-11-15T13:44:24;13.83;;;9.93;;
6292;SDS011;3179;54.350;10.102;2022-11-15T13:47:03;14.60;;;9.80;;
6292;SDS011;3179;54.350;10.102;2022-11-15T13:49:31;13.30;;;10.77;;
6292;SDS011;3179;54.350;10.102;2022-11-15T13:52:00;15.40;;;9.47;;
6292;SDS011;3179;54.350;10.102;2022-11-15T13:54:29;14.53;;;8.87;;
6292;SDS011;3179;54.350;10.102;2022-11-15T13:57:01;14.20;;;10.70;;
6292;SDS011;3179;54.350;10.102;2022-11-15T13:59:31;13.20;;;9.17;;
6292;SDS011;3179;54.350;10.102;2022-11-15T14:02:02;14.60;;;10.37;;
6292;SDS011;3179;54.350;10.102;2022-11-15T14:07:28;13.07;;;8.70;;
6292;SDS011;3179;54.350;10.102;2022-11-15T14:09:59;10.90;;;8.70;;
6292;SDS011;3179;54.350;10.102;2022-11-15T14:12:49;13.90;;;9.60;;
6292;SDS011;3179;54.350;10.102;2022-11-15T14:15:25;14.77;;;8.60;;
6292;SDS011;3179;54.350;10.102;2022-11-15T14:17:55;12.20;;;9.07;;
6292;SDS011;3179;54.350;10.102;2022-11-15T14:20:31;14.83;;;9.77;;
6292;SDS011;3179;54.350;10.102;2022-11-15T14:23:00;13.07;;;8.77;;
6292;SDS011;3179;54.350;10.102;2022-11-15T14:25:30;13.30;;;9.13;;
6292;SDS011;3179;54.350;10.102;2022-11-15T14:28:08;12.43;;;9.17;;
6292;SDS011;3179;54.350;10.102;2022-11-15T14:30:41;13.37;;;9.60;;
6292;SDS011;3179;54.350;10.102;2022-11-15T14:33:17;13.90;;;8.83;;
6292;SDS011;3179;54.350;10.102;2022-11-15T14:35:47;13.33;;;9.27;;
6292;SDS011;3179;54.350;10.102;2022-11-15T14:38:14;12.50;;;8.90;;
6292;SDS011;3179;54.350;10.102;2022-11-15T14:40:42;12.83;;;9.43;;
6292;SDS011;3179;54.350;10.102;2022-11-15T14:43:10;11.10;;;8.33;;
6292;SDS011;3179;54.350;10.102;2022-11-15T14:45:38;26.13;;;10.30;;
6292;SDS011;3179;54.350;10.102;2022-11-15T14:48:06;16.33;;;9.20;;
6292;SDS011;3179;54.350;10.102;2022-11-15T14:50:42;15.30;;;9.97;;
6292;SDS011;3179;54.350;10.102;2022-11-15T14:53:12;12.80;;;9.47;;
6292;SDS011;3179;54.350;10.102;2022-11-15T14:55:43;13.07;;;9.37;;
6292;SDS011;3179;54.350;10.102;2022-11-15T14:58:12;17.17;;;10.03;;
6292;SDS011;3179;54.350;10.102;2022-11-15T15:00:39;13.90;;;9.80;;
6292;SDS011;3179;54.350;10.102;2022-11-15T15:03:07;16.40;;;9.33;;
6292;SDS011;3179;54.350;10.102;2022-11-15T15:05:35;12.60;;;9.20;;
6292;SDS011;3179;54.350;10.102;2022-11-15T15:08:03;12.90;;;8.97;;
6292;SDS011;3179;54.350;10.102;2022-11-15T15:10:31;13.67;;;9.93;;
6292;SDS011;3179;54.350;10.102;2022-11-15T15:13:00;13.63;;;8.53;;
6292;SDS011;3179;54.350;10.102;2022-11-15T15:15:33;14.40;;;8.90;;